createdAt,value
2023-03-13T00:01:50.081Z,11.41
2023-03-13T00:04:16.725Z,11.49
2023-03-13T00:06:43.326Z,11.51
2023-03-13T00:09:12.439Z,11.54
2023-03-13T00:11:39.376Z,11.54
2023-03-13T00:14:06.962Z,11.56
2023-03-13T00:16:34.280Z,11.61
2023-03-13T00:19:01.545Z,11.64
2023-03-13T00:21:30.565Z,11.67
2023-03-13T00:23:59.105Z,11.70
2023-03-13T00:26:27.508Z,11.72
2023-03-13T00:28:54.976Z,11.74
2023-03-13T00:31:24.749Z,11.76
2023-03-13T00:33:55.507Z,11.76
2023-03-13T00:36:24.749Z,11.82
2023-03-13T00:38:53.086Z,11.82
2023-03-13T00:41:22.270Z,11.89
2023-03-13T00:43:50.302Z,11.90
2023-03-13T00:46:19.798Z,11.91
2023-03-13T00:48:46.887Z,11.93
2023-03-13T00:51:16.061Z,11.93
2023-03-13T00:53:43.164Z,11.96
2023-03-13T00:56:12.325Z,11.95
2023-03-13T00:58:40.688Z,11.98
2023-03-13T01:01:11.879Z,11.99
2023-03-13T01:03:39.666Z,11.96
2023-03-13T01:06:10.100Z,11.95
2023-03-13T01:08:36.703Z,11.99
2023-03-13T01:11:09.211Z,12.02
2023-03-13T01:13:36.208Z,12.02
2023-03-13T01:16:07.047Z,12.02
2023-03-13T01:18:35.744Z,12.04
2023-03-13T01:21:02.939Z,11.97
2023-03-13T01:23:29.711Z,12.05
2023-03-13T01:25:57.186Z,12.07
2023-03-13T01:28:25.269Z,12.04
2023-03-13T01:30:52.067Z,12.08
2023-03-13T01:33:19.169Z,12.09
2023-03-13T01:35:47.093Z,12.06
2023-03-13T01:38:13.840Z,12.09
2023-03-13T01:40:49.025Z,12.13
2023-03-13T01:43:26.160Z,12.15
2023-03-13T01:45:56.480Z,12.18
2023-03-13T01:48:27.439Z,12.19
2023-03-13T01:50:56.843Z,12.22
2023-03-13T01:53:28.211Z,12.22
2023-03-13T01:55:56.368Z,12.25
2023-03-13T01:58:23.355Z,12.20
2023-03-13T02:00:50.429Z,12.25
2023-03-13T02:03:20.928Z,12.30
2023-03-13T02:05:49.928Z,12.30
2023-03-13T02:08:29.643Z,12.33
2023-03-13T02:11:10.419Z,12.37
2023-03-13T02:13:36.976Z,12.37
2023-03-13T02:16:04.109Z,12.36
2023-03-13T02:18:31.144Z,12.39
2023-03-13T02:21:08.208Z,12.39
2023-03-13T02:23:46.873Z,12.40
2023-03-13T02:26:13.579Z,12.36
2023-03-13T02:28:40.925Z,12.42
2023-03-13T02:31:12.282Z,12.38
2023-03-13T02:33:41.178Z,12.42
2023-03-13T02:36:12.312Z,12.40
2023-03-13T02:38:48.383Z,12.41
2023-03-13T02:41:17.510Z,12.39
2023-03-13T02:43:44.139Z,12.37
2023-03-13T02:46:14.316Z,12.34
2023-03-13T02:48:47.174Z,12.32
2023-03-13T02:51:20.057Z,12.24
2023-03-13T02:53:50.463Z,12.22
2023-03-13T02:56:20.298Z,12.19
2023-03-13T02:58:50.339Z,12.20
2023-03-13T03:01:20.495Z,12.16
2023-03-13T03:03:47.256Z,12.12
2023-03-13T03:06:14.438Z,12.10
2023-03-13T03:08:41.194Z,12.12
2023-03-13T03:11:10.323Z,12.12
2023-03-13T03:13:37.691Z,12.13
2023-03-13T03:16:10.150Z,12.13
2023-03-13T03:18:38.115Z,12.13
2023-03-13T03:21:06.449Z,12.14
2023-03-13T03:23:37.961Z,12.16
2023-03-13T03:26:06.169Z,12.20
2023-03-13T03:28:33.192Z,12.21
2023-03-13T03:31:10.534Z,12.21
2023-03-13T03:33:38.593Z,12.19
2023-03-13T03:36:11.903Z,12.24
2023-03-13T03:38:38.569Z,12.27
2023-03-13T03:41:07.262Z,12.28
2023-03-13T03:43:34.974Z,12.30
2023-03-13T03:46:03.607Z,12.31
2023-03-13T03:48:30.690Z,12.32
2023-03-13T03:50:57.662Z,12.33
2023-03-13T03:53:25.463Z,12.29
2023-03-13T03:55:52.747Z,12.34
2023-03-13T03:58:19.568Z,12.31
2023-03-13T04:00:59.858Z,12.29
2023-03-13T04:03:27.842Z,12.27
2023-03-13T04:05:54.676Z,12.21
2023-03-13T04:08:23.966Z,12.25
2023-03-13T04:10:51.480Z,12.26
2023-03-13T04:13:21.923Z,12.22
2023-03-13T04:15:49.223Z,12.27
2023-03-13T04:18:16.970Z,12.21
2023-03-13T04:20:45.065Z,12.26
2023-03-13T04:23:12.249Z,12.31
2023-03-13T04:25:39.004Z,12.32
2023-03-13T04:28:09.191Z,12.33
2023-03-13T04:30:41.576Z,12.35
2023-03-13T04:33:28.468Z,12.36
2023-03-13T04:36:07.664Z,12.43
2023-03-13T04:38:57.421Z,12.45
2023-03-13T04:41:56.276Z,12.43
2023-03-13T04:44:43.634Z,12.42
2023-03-13T04:47:18.540Z,12.38
2023-03-13T04:50:08.406Z,12.34
2023-03-13T04:52:49.757Z,12.32
2023-03-13T04:55:40.000Z,12.31
2023-03-13T04:58:27.106Z,12.26
2023-03-13T05:01:15.554Z,12.25
2023-03-13T05:04:02.469Z,12.17
2023-03-13T05:06:52.174Z,12.13
2023-03-13T05:09:32.196Z,12.15
2023-03-13T05:12:12.651Z,12.11
2023-03-13T05:14:53.527Z,12.06
2023-03-13T05:17:39.106Z,12.06
2023-03-13T05:20:24.388Z,12.05
2023-03-13T05:23:01.972Z,11.96
2023-03-13T05:25:50.038Z,11.96
2023-03-13T05:28:36.835Z,12.00
2023-03-13T05:31:29.707Z,11.99
2023-03-13T05:34:10.421Z,12.00
2023-03-13T05:37:00.219Z,12.03
2023-03-13T05:39:53.404Z,12.06
2023-03-13T05:42:37.524Z,12.06
2023-03-13T05:45:27.332Z,12.03
2023-03-13T05:48:20.367Z,12.05
2023-03-13T05:51:22.453Z,12.08
2023-03-13T05:54:07.431Z,12.05
2023-03-13T05:56:52.642Z,12.03
2023-03-13T05:59:31.627Z,12.04
2023-03-13T06:02:16.888Z,12.07
2023-03-13T06:04:47.162Z,12.01
2023-03-13T06:07:14.092Z,12.03
2023-03-13T06:09:40.681Z,12.02
2023-03-13T06:12:09.929Z,12.01
2023-03-13T06:14:36.517Z,12.02
2023-03-13T06:17:21.906Z,11.99
2023-03-13T06:19:48.447Z,12.01
2023-03-13T06:22:17.377Z,12.01
2023-03-13T06:24:43.966Z,12.00
2023-03-13T06:27:11.332Z,12.02
2023-03-13T06:29:40.336Z,12.01
2023-03-13T06:32:07.567Z,12.02
2023-03-13T06:34:34.481Z,12.07
2023-03-13T06:37:01.293Z,12.07
2023-03-13T06:39:28.005Z,12.10
2023-03-13T06:41:54.591Z,12.08
2023-03-13T06:44:21.437Z,12.13
2023-03-13T06:46:47.975Z,12.09
2023-03-13T06:49:14.797Z,12.13
2023-03-13T06:51:41.350Z,12.12
2023-03-13T06:54:08.535Z,12.10
2023-03-13T06:56:35.059Z,12.07
2023-03-13T06:59:01.698Z,12.05
2023-03-13T07:01:28.432Z,12.04
2023-03-13T07:03:55.480Z,12.01
2023-03-13T07:06:22.143Z,11.99
2023-03-13T07:08:48.906Z,12.06
2023-03-13T07:11:16.481Z,12.02
2023-03-13T07:13:43.389Z,11.99
2023-03-13T07:16:13.258Z,12.05
2023-03-13T07:18:58.115Z,12.08
2023-03-13T07:21:25.091Z,11.98
2023-03-13T07:23:53.494Z,12.06
2023-03-13T07:26:20.142Z,12.15
2023-03-13T07:28:46.973Z,12.08
2023-03-13T07:31:19.121Z,12.16
2023-03-13T07:33:46.074Z,12.22
2023-03-13T07:36:14.681Z,12.27
2023-03-13T07:38:41.675Z,12.32
2023-03-13T07:41:08.210Z,12.35
2023-03-13T07:43:34.892Z,12.33
2023-03-13T07:46:04.336Z,12.39
2023-03-13T07:48:36.371Z,12.38
2023-03-13T07:51:04.223Z,12.40
2023-03-13T07:53:30.833Z,12.44
2023-03-13T07:55:59.855Z,12.50
2023-03-13T07:58:53.633Z,12.54
2023-03-13T08:01:25.596Z,12.61
2023-03-13T08:03:54.403Z,12.56
2023-03-13T08:06:25.516Z,12.64
2023-03-13T08:08:52.872Z,12.65
2023-03-13T08:11:24.541Z,12.63
2023-03-13T08:13:52.069Z,12.65
2023-03-13T08:16:27.867Z,12.65
2023-03-13T08:18:57.262Z,12.66
2023-03-13T08:21:32.127Z,12.65
2023-03-13T08:24:00.754Z,12.59
2023-03-13T08:26:29.448Z,12.70
2023-03-13T08:29:00.749Z,12.71
2023-03-13T08:31:30.197Z,12.76
2023-03-13T08:33:57.245Z,12.78
2023-03-13T08:36:26.947Z,12.88
2023-03-13T08:38:54.708Z,12.98
2023-03-13T08:41:24.071Z,13.05
2023-03-13T08:43:53.790Z,13.14
2023-03-13T08:46:24.519Z,13.19
2023-03-13T08:48:53.118Z,13.19
2023-03-13T08:51:22.572Z,13.24
2023-03-13T08:53:49.625Z,13.26
2023-03-13T08:56:18.934Z,13.29
2023-03-13T08:58:53.069Z,13.23
2023-03-13T09:01:21.164Z,13.25
2023-03-13T09:03:47.860Z,13.23
2023-03-13T09:06:14.499Z,13.25
2023-03-13T09:08:42.083Z,13.26
2023-03-13T09:11:11.718Z,13.38
2023-03-13T09:13:42.170Z,13.43
2023-03-13T09:16:11.790Z,13.49
2023-03-13T09:18:38.949Z,13.53
2023-03-13T09:21:08.320Z,13.62
2023-03-13T09:23:35.671Z,13.70
2023-03-13T09:26:02.316Z,13.79
2023-03-13T09:28:29.190Z,13.84
2023-03-13T09:30:55.953Z,13.94
2023-03-13T09:33:23.206Z,14.03
2023-03-13T09:35:50.018Z,14.11
2023-03-13T09:38:18.292Z,14.10
2023-03-13T09:40:56.647Z,14.13
2023-03-13T09:43:50.199Z,14.08
2023-03-13T09:46:21.692Z,14.10
2023-03-13T09:48:58.424Z,14.09
2023-03-13T09:51:29.504Z,14.10
2023-03-13T09:54:24.188Z,14.11
2023-03-13T09:56:56.575Z,14.10
2023-03-13T09:59:33.092Z,14.07
2023-03-13T10:02:03.777Z,14.08
2023-03-13T10:04:33.440Z,14.08
2023-03-13T10:07:00.000Z,14.09
2023-03-13T10:09:31.095Z,14.07
2023-03-13T10:12:20.749Z,14.07
2023-03-13T10:14:53.544Z,14.08
2023-03-13T10:17:40.292Z,14.10
2023-03-13T10:20:31.781Z,14.11
2023-03-13T10:23:22.001Z,14.17
2023-03-13T10:25:48.653Z,14.23
2023-03-13T10:28:17.436Z,14.32
2023-03-13T10:31:08.910Z,14.38
2023-03-13T10:33:37.156Z,14.46
2023-03-13T10:36:13.199Z,14.48
2023-03-13T10:38:53.970Z,14.48
2023-03-13T10:41:26.054Z,14.40
2023-03-13T10:43:54.893Z,14.50
2023-03-13T10:46:30.283Z,14.40
2023-03-13T10:49:01.736Z,14.46
2023-03-13T10:51:47.078Z,14.41
2023-03-13T10:54:34.178Z,14.39
2023-03-13T10:57:23.794Z,14.36
2023-03-13T10:59:52.788Z,14.35
2023-03-13T11:02:25.378Z,14.36
2023-03-13T11:04:52.253Z,14.37
2023-03-13T11:07:37.806Z,14.37
2023-03-13T11:10:13.643Z,14.36
2023-03-13T11:12:45.737Z,14.38
2023-03-13T11:15:16.937Z,14.43
2023-03-13T11:17:47.511Z,14.53
2023-03-13T11:20:56.586Z,14.68
2023-03-13T11:23:40.944Z,14.86
2023-03-13T11:26:16.528Z,15.06
2023-03-13T11:29:15.359Z,15.30
2023-03-13T11:31:51.437Z,15.45
2023-03-13T11:34:36.255Z,15.52
2023-03-13T11:37:11.996Z,15.59
2023-03-13T11:39:59.484Z,15.58
2023-03-13T11:42:35.098Z,15.55
2023-03-13T11:45:13.699Z,15.54
2023-03-13T11:48:02.272Z,15.58
2023-03-13T11:50:35.425Z,15.56
2023-03-13T11:53:26.814Z,15.61
2023-03-13T11:56:06.557Z,15.66
2023-03-13T11:59:08.055Z,15.70
2023-03-13T12:01:41.032Z,15.66
2023-03-13T12:04:27.462Z,15.82
2023-03-13T12:07:06.304Z,15.93
2023-03-13T12:09:42.533Z,16.04
2023-03-13T12:12:33.124Z,16.05
2023-03-13T12:15:18.912Z,16.08
2023-03-13T12:17:51.977Z,15.99
2023-03-13T12:20:28.597Z,16.03
2023-03-13T12:23:08.944Z,16.02
2023-03-13T12:25:45.237Z,16.16
2023-03-13T12:28:36.202Z,16.20
2023-03-13T12:31:11.975Z,16.25
2023-03-13T12:33:58.736Z,16.28
2023-03-13T12:37:09.604Z,16.43
2023-03-13T12:39:42.254Z,16.44
2023-03-13T12:42:47.501Z,16.39
2023-03-13T12:45:24.750Z,16.32
2023-03-13T12:48:23.327Z,16.25
2023-03-13T12:51:17.844Z,16.27
2023-03-13T12:54:05.872Z,16.25
2023-03-13T12:56:50.915Z,16.29
2023-03-13T12:59:31.299Z,16.31
2023-03-13T13:02:23.932Z,16.37
2023-03-13T13:04:53.535Z,16.39
2023-03-13T13:07:29.413Z,16.46
2023-03-13T13:10:01.164Z,16.40
2023-03-13T13:12:28.519Z,16.53
2023-03-13T13:14:56.330Z,16.76
2023-03-13T13:17:45.505Z,16.76
2023-03-13T13:20:43.109Z,16.79
2023-03-13T13:23:28.643Z,16.99
2023-03-13T13:26:16.126Z,17.05
2023-03-13T13:28:42.865Z,17.02
2023-03-13T13:31:47.323Z,17.09
2023-03-13T13:34:29.362Z,17.20
2023-03-13T13:37:00.579Z,17.16
2023-03-13T13:39:40.821Z,17.17
2023-03-13T13:42:32.510Z,17.15
2023-03-13T13:45:05.298Z,17.21
2023-03-13T13:47:33.760Z,17.19
2023-03-13T13:50:00.948Z,17.15
2023-03-13T13:52:38.025Z,17.07
2023-03-13T13:55:27.477Z,17.08
2023-03-13T13:58:06.414Z,17.07
2023-03-13T14:00:45.264Z,17.15
2023-03-13T14:03:20.163Z,17.09
2023-03-13T14:05:49.628Z,16.98
2023-03-13T14:08:28.845Z,16.83
2023-03-13T14:11:21.756Z,16.70
2023-03-13T14:14:13.303Z,16.61
2023-03-13T14:16:39.919Z,16.56
2023-03-13T14:19:22.432Z,16.48
2023-03-13T14:21:49.303Z,16.67
2023-03-13T14:24:17.004Z,16.84
2023-03-13T14:26:44.573Z,17.00
2023-03-13T14:29:19.562Z,17.14
2023-03-13T14:32:17.798Z,17.26
2023-03-13T14:34:44.514Z,17.31
2023-03-13T14:37:38.034Z,17.20
2023-03-13T14:40:07.530Z,17.04
2023-03-13T14:42:42.033Z,16.74
2023-03-13T14:45:21.981Z,16.55
2023-03-13T14:47:51.190Z,16.30
2023-03-13T14:50:18.434Z,16.21
2023-03-13T14:52:47.692Z,16.12
2023-03-13T14:55:23.633Z,16.06
2023-03-13T14:58:05.690Z,16.00
2023-03-13T15:00:34.574Z,15.96
2023-03-13T15:03:16.452Z,15.90
2023-03-13T15:06:01.964Z,15.84
2023-03-13T15:08:29.690Z,15.79
2023-03-13T15:10:56.988Z,15.73
2023-03-13T15:13:33.854Z,15.63
2023-03-13T15:16:01.791Z,15.58
2023-03-13T15:18:30.732Z,15.54
2023-03-13T15:21:15.715Z,15.46
2023-03-13T15:23:42.760Z,15.40
2023-03-13T15:26:10.398Z,15.31
2023-03-13T15:28:37.051Z,15.25
2023-03-13T15:31:03.984Z,15.23
2023-03-13T15:33:31.325Z,15.31
2023-03-13T15:36:01.081Z,15.30
2023-03-13T15:38:28.196Z,15.19
2023-03-13T15:40:55.389Z,15.07
2023-03-13T15:43:23.035Z,15.02
2023-03-13T15:45:51.605Z,14.97
2023-03-13T15:48:21.653Z,14.85
2023-03-13T15:50:52.273Z,14.72
2023-03-13T15:53:21.738Z,14.66
2023-03-13T15:55:50.401Z,14.56
2023-03-13T15:58:17.875Z,14.52
2023-03-13T16:00:45.229Z,14.52
2023-03-13T16:03:26.467Z,14.50
2023-03-13T16:05:54.702Z,14.52
2023-03-13T16:08:34.786Z,14.63
2023-03-13T16:11:02.313Z,14.64
2023-03-13T16:13:28.998Z,14.68
2023-03-13T16:15:55.582Z,14.72
2023-03-13T16:18:23.888Z,14.75
2023-03-13T16:20:51.852Z,14.76
2023-03-13T16:23:20.734Z,14.78
2023-03-13T16:25:47.903Z,14.80
2023-03-13T16:28:15.638Z,14.85
2023-03-13T16:30:43.187Z,14.96
2023-03-13T16:33:11.185Z,14.93
2023-03-13T16:35:38.573Z,14.83
2023-03-13T16:38:05.677Z,14.66
2023-03-13T16:40:33.990Z,14.63
2023-03-13T16:43:00.985Z,14.61
2023-03-13T16:45:27.704Z,14.62
2023-03-13T16:47:54.463Z,14.58
2023-03-13T16:50:23.065Z,14.43
2023-03-13T16:52:51.030Z,14.38
2023-03-13T16:55:18.807Z,14.34
2023-03-13T16:57:45.910Z,14.31
2023-03-13T17:00:20.044Z,14.29
2023-03-13T17:02:46.978Z,14.24
2023-03-13T17:05:19.580Z,14.24
2023-03-13T17:07:50.878Z,14.16
2023-03-13T17:10:22.162Z,14.13
2023-03-13T17:12:49.334Z,14.05
2023-03-13T17:15:17.585Z,14.01
2023-03-13T17:17:46.166Z,13.83
2023-03-13T17:20:15.176Z,13.92
2023-03-13T17:22:44.405Z,13.85
2023-03-13T17:25:15.204Z,13.69
2023-03-13T17:27:44.795Z,13.76
2023-03-13T17:30:17.894Z,13.71
2023-03-13T17:32:44.593Z,13.66
2023-03-13T17:35:11.275Z,13.66
2023-03-13T17:37:37.923Z,13.63
2023-03-13T17:40:15.430Z,13.52
2023-03-13T17:42:41.978Z,13.50
2023-03-13T17:45:08.926Z,13.40
2023-03-13T17:47:35.610Z,13.42
2023-03-13T17:50:02.132Z,13.35
2023-03-13T17:52:28.737Z,13.35
2023-03-13T17:54:55.250Z,13.29
2023-03-13T17:57:22.974Z,13.27
2023-03-13T17:59:49.959Z,13.21
2023-03-13T18:02:17.122Z,13.19
2023-03-13T18:04:44.187Z,13.19
2023-03-13T18:07:17.557Z,13.14
2023-03-13T18:09:44.093Z,13.13
2023-03-13T18:12:11.578Z,13.08
2023-03-13T18:14:38.099Z,13.03
2023-03-13T18:17:14.501Z,12.98
2023-03-13T18:19:41.319Z,12.87
2023-03-13T18:22:13.032Z,12.77
2023-03-13T18:24:39.584Z,12.78
2023-03-13T18:27:14.183Z,12.76
2023-03-13T18:29:41.617Z,12.72
2023-03-13T18:32:10.530Z,12.66
2023-03-13T18:34:37.075Z,12.62
2023-03-13T18:37:06.447Z,12.62
2023-03-13T18:39:33.369Z,12.56
2023-03-13T18:42:00.234Z,12.58
2023-03-13T18:44:26.837Z,12.53
2023-03-13T18:46:55.401Z,12.49
2023-03-13T18:49:22.671Z,12.43
2023-03-13T18:51:51.218Z,12.40
2023-03-13T18:54:17.803Z,12.29
2023-03-13T18:56:45.350Z,12.25
2023-03-13T18:59:18.603Z,12.23
2023-03-13T19:01:45.524Z,12.11
2023-03-13T19:04:12.112Z,12.08
2023-03-13T19:06:38.762Z,11.99
2023-03-13T19:09:40.992Z,11.97
2023-03-13T19:12:04.817Z,11.92
2023-03-13T19:14:31.419Z,11.87
2023-03-13T19:16:58.115Z,11.87
2023-03-13T19:19:26.259Z,11.82
2023-03-13T19:21:53.925Z,11.78
2023-03-13T19:24:20.631Z,11.67
2023-03-13T19:26:51.724Z,11.69
2023-03-13T19:29:23.786Z,11.66
2023-03-13T19:31:50.794Z,11.60
2023-03-13T19:34:17.650Z,11.64
2023-03-13T19:36:46.257Z,11.59
2023-03-13T19:39:15.566Z,11.57
2023-03-13T19:41:42.625Z,11.61
2023-03-13T19:44:09.364Z,11.65
2023-03-13T19:46:36.843Z,11.63
2023-03-13T19:49:03.724Z,11.65
2023-03-13T19:51:31.462Z,11.66
2023-03-13T19:53:58.206Z,11.66
2023-03-13T19:56:27.789Z,11.61
2023-03-13T19:59:02.677Z,11.64
2023-03-13T20:01:30.047Z,11.64
2023-03-13T20:03:56.893Z,11.63
2023-03-13T20:06:26.610Z,11.60
2023-03-13T20:08:58.270Z,11.64
2023-03-13T20:11:25.808Z,11.65
2023-03-13T20:13:52.518Z,11.64
2023-03-13T20:16:19.192Z,11.65
2023-03-13T20:18:48.458Z,11.66
2023-03-13T20:21:16.564Z,11.64
2023-03-13T20:23:44.580Z,11.65
2023-03-13T20:26:13.171Z,11.61
2023-03-13T20:28:42.111Z,11.57
2023-03-13T20:31:08.913Z,11.43
2023-03-13T20:33:36.430Z,11.26
2023-03-13T20:36:10.456Z,11.10
2023-03-13T20:38:38.343Z,10.90
2023-03-13T20:41:05.455Z,10.73
2023-03-13T20:43:32.914Z,10.52
2023-03-13T20:45:59.618Z,10.42
2023-03-13T20:48:26.453Z,10.37
2023-03-13T20:50:54.664Z,10.28
2023-03-13T20:53:28.259Z,10.26
2023-03-13T20:56:33.349Z,10.21
2023-03-13T20:59:00.158Z,10.16
2023-03-13T21:01:28.116Z,10.09
2023-03-13T21:04:05.550Z,10.05
2023-03-13T21:06:32.262Z,9.91
2023-03-13T21:08:58.998Z,9.94
2023-03-13T21:11:31.350Z,9.85
2023-03-13T21:14:01.993Z,9.82
2023-03-13T21:16:28.838Z,9.78
2023-03-13T21:18:55.493Z,9.81
2023-03-13T21:21:22.107Z,9.73
2023-03-13T21:23:48.757Z,9.73
2023-03-13T21:26:15.399Z,9.72
2023-03-13T21:28:42.340Z,9.68
2023-03-13T21:31:19.073Z,9.60
2023-03-13T21:33:51.349Z,9.51
2023-03-13T21:36:21.405Z,9.59
2023-03-13T21:38:50.105Z,9.62
2023-03-13T21:41:20.014Z,9.57
2023-03-13T21:43:46.555Z,9.60
2023-03-13T21:46:17.710Z,9.57
2023-03-13T21:51:12.942Z,9.54
2023-03-13T21:53:39.438Z,9.57
2023-03-13T21:56:06.488Z,9.55
2023-03-13T21:58:33.760Z,9.56
2023-03-13T22:01:01.383Z,9.60
2023-03-13T22:03:27.915Z,9.60
2023-03-13T22:05:54.852Z,9.62
2023-03-13T22:08:21.414Z,9.64
2023-03-13T22:10:49.166Z,9.68
2023-03-13T22:13:15.812Z,9.71
2023-03-13T22:15:42.467Z,9.75
2023-03-13T22:18:09.154Z,9.77
2023-03-13T22:20:35.609Z,9.77
2023-03-13T22:23:02.093Z,9.82
2023-03-13T22:25:28.572Z,9.84
2023-03-13T22:27:55.136Z,9.84
2023-03-13T22:30:21.593Z,9.87
2023-03-13T22:32:48.117Z,9.89
2023-03-13T22:35:14.692Z,9.92
2023-03-13T22:37:41.187Z,9.95
2023-03-13T22:40:08.331Z,9.96
2023-03-13T22:42:34.810Z,10.00
2023-03-13T22:45:01.236Z,10.02
2023-03-13T22:47:27.717Z,10.02
2023-03-13T22:49:54.177Z,10.04
2023-03-13T22:52:20.651Z,10.07
2023-03-13T22:54:47.124Z,10.08
2023-03-13T22:57:13.617Z,10.09
2023-03-13T22:59:40.085Z,10.09
2023-03-13T23:02:06.546Z,10.08
2023-03-13T23:04:33.059Z,10.12
2023-03-13T23:06:59.520Z,10.14
2023-03-13T23:09:25.988Z,10.14
2023-03-13T23:11:52.499Z,10.13
2023-03-13T23:14:19.032Z,10.13
2023-03-13T23:16:45.734Z,10.13
2023-03-13T23:19:12.203Z,10.13
2023-03-13T23:21:38.674Z,10.14
2023-03-13T23:24:05.480Z,10.13
2023-03-13T23:26:31.986Z,10.12
2023-03-13T23:28:58.442Z,10.13
2023-03-13T23:31:24.898Z,10.10
2023-03-13T23:33:51.578Z,10.10
2023-03-13T23:36:19.258Z,10.07
2023-03-13T23:38:49.741Z,9.98
2023-03-13T23:41:16.402Z,10.00
2023-03-13T23:43:42.876Z,9.95
2023-03-13T23:46:23.905Z,9.92
2023-03-13T23:48:57.393Z,9.89
2023-03-13T23:51:25.297Z,9.83
2023-03-13T23:53:51.753Z,9.83
2023-03-13T23:56:18.366Z,9.82
2023-03-13T23:58:45.004Z,9.81
